Quincy, IL (62301)

6:06 AM CST on December 11, 2016 (GMT -0600)
KB9HGI - N 17th St. | | Change Station

Elev 614 ft 39.95 °N, 91.38 °W | Updated 5 seconds ago

Overcast
Overcast
37.7 °F
Feels Like 33 °F
N
6.0
Wind Variable Wind from SE
Gusts 10.0 mph

Today
High -- | Low -- °F
--% Chance of Precip.
Yesterday
High -- | Low -- °F
Precip. -- in
Pressure 29.95 in
Visibility 10.0 miles
Clouds Overcast 3100 ft
Windchill 33 °F
Dew Point 24 °F
Humidity 58%
Rainfall 0.00 in
Snow Depth Not available.
7:17 AM 4:40 PM
Waxing Gibbous, 91% visible
METAR KUIN 111154Z AUTO 15008KT 10SM OVC031 02/M07 A2993 RMK AO2 SLP141 T00221072 10022 20006 56028
Pressure 29.95 in
Visibility 10.0 miles
Clouds Overcast 3100 ft
Windchill 33 °F
Dew Point 24 °F
Humidity 58%
Rainfall 0.00 in
Snow Depth Not available.
7:17 AM 4:40 PM
Waxing Gibbous, 91% visible
METAR KUIN 111154Z AUTO 15008KT 10SM OVC031 02/M07 A2993 RMK AO2 SLP141 T00221072 10022 20006 56028

10-Day Weather Forecast

Almanac

Astronomy

Dec. 11, 2016 Rise Set
Actual Time
Civil Twilight
Nautical Twilight
Astronomical Twilight
Moon
Length of Visible Light
Length of Day
Tomorrow will be .
, % of the Moon is Illuminated

Today's Extremes

State Highs State Lows

Community

WunderPhotos

Upload Photos

1,956,710 photos uploaded!

WunderBlog® & News

Nearby

Air Quality

  Air Quality AQ Index Pollutant
Not available.

Snow Depth

Station Depth Elevation

Earthquake Activity

City Distance Mag. Time & Date
Minimum magnitude displayed is 2.5.

Coastal Water Temperatures

Place Temperature

Stations

Nearby Weather Stations

Station Location Temp. Windchill Dew Point Humidity Wind Precip. Elev Updated Type
                   

Watches & Warnings

There are currently no watches in effect.